AFR56T LFPG-KLAS
Flight info
| Callsign | AFR56T |
|---|---|
| Flight time | N/A |
| Altitude | 36000 |
| Route | ELCOB UT300 RUBIX DCT SENLO DCT JSY DCT LIZAD DCT NAKID DCT EVCOR DCT LEDGO DCT PIKIL/M084F380 NATA URTAK/N0497F400 DCT MCKEE DCT PIGLA DCT OMEVA DCT 50N098W DCT MOT DCT SWTHN DCT BOY DCT MLF DCT STEWW CHOWW4 |
| Aircraft | A359/H-SDE2E3GHIJ3J4J5LM1ORWXY/LB1D1 |
Departure
| Time | 2026-05-06 11:49 |
|---|---|
| Airport | Charles de Gaulle International Airport (LFPG) |
Arrival
| Time | N/A |
|---|---|
| Airport | Harry Reid International Airport (KLAS) |
| Time | Latitude | Longitude | Altitude | Speed | Heading |
|---|---|---|---|---|---|
| 2026-05-06 11:20 | 49.00391 | 2.59195 | 359 ft | 0 kts | 264° |
| 2026-05-06 11:24 | 49.00392 | 2.59195 | 359 ft | 0 kts | 264° |
| 2026-05-06 11:25 | 49.00391 | 2.59195 | 359 ft | 0 kts | 264° |
| 2026-05-06 11:25 | 49.00392 | 2.59195 | 359 ft | 0 kts | 264° |
| 2026-05-06 11:27 | 49.00392 | 2.59196 | 359 ft | 0 kts | 264° |
| 2026-05-06 11:37 | 49.00392 | 2.59198 | 359 ft | 2 kts | 264° |
| 2026-05-06 11:38 | 49.00395 | 2.59236 | 359 ft | 4 kts | 263° |
| 2026-05-06 11:38 | 49.00398 | 2.59277 | 359 ft | 4 kts | 264° |
| 2026-05-06 11:38 | 49.00400 | 2.59317 | 359 ft | 4 kts | 264° |
| 2026-05-06 11:38 | 49.00403 | 2.59358 | 364 ft | 4 kts | 264° |
| 2026-05-06 11:39 | 49.00405 | 2.59399 | 366 ft | 3 kts | 264° |
| 2026-05-06 11:39 | 49.00406 | 2.59405 | 364 ft | 0 kts | 264° |
| 2026-05-06 11:43 | 49.00404 | 2.59387 | 365 ft | 5 kts | 258° |
| 2026-05-06 11:43 | 49.00370 | 2.59344 | 362 ft | 7 kts | 195° |
| 2026-05-06 11:44 | 49.00251 | 2.59348 | 365 ft | 10 kts | 177° |
| 2026-05-06 11:44 | 49.00176 | 2.59355 | 362 ft | 11 kts | 176° |
| 2026-05-06 11:44 | 49.00099 | 2.59374 | 366 ft | 11 kts | 152° |
| 2026-05-06 11:44 | 49.00076 | 2.59479 | 366 ft | 11 kts | 91° |
| 2026-05-06 11:45 | 49.00080 | 2.59605 | 360 ft | 12 kts | 86° |
| 2026-05-06 11:45 | 49.00088 | 2.59741 | 366 ft | 13 kts | 85° |
| 2026-05-06 11:45 | 49.00096 | 2.59888 | 360 ft | 14 kts | 85° |
| 2026-05-06 11:45 | 49.00104 | 2.60045 | 365 ft | 15 kts | 85° |
| 2026-05-06 11:46 | 49.00114 | 2.60212 | 363 ft | 16 kts | 85° |
| 2026-05-06 11:46 | 49.00123 | 2.60386 | 360 ft | 17 kts | 85° |
| 2026-05-06 11:46 | 49.00133 | 2.60567 | 366 ft | 18 kts | 85° |
| 2026-05-06 11:46 | 49.00143 | 2.60756 | 362 ft | 18 kts | 85° |
| 2026-05-06 11:47 | 49.00146 | 2.60879 | 368 ft | 9 kts | 96° |
| 2026-05-06 11:47 | 49.00119 | 2.60970 | 364 ft | 10 kts | 130° |
| 2026-05-06 11:47 | 49.00052 | 2.61014 | 367 ft | 11 kts | 174° |
| 2026-05-06 11:47 | 48.99969 | 2.61022 | 366 ft | 13 kts | 180° |
| 2026-05-06 11:48 | 48.99884 | 2.60962 | 367 ft | 14 kts | 232° |
| 2026-05-06 11:48 | 48.99865 | 2.60808 | 359 ft | 15 kts | 266° |
| 2026-05-06 11:48 | 48.99854 | 2.60586 | 360 ft | 36 kts | 264° |
| 2026-05-06 11:48 | 48.99817 | 2.59895 | 361 ft | 94 kts | 265° |
| 2026-05-06 11:49 | 48.99750 | 2.58634 | 359 ft | 143 kts | 265° |
| 2026-05-06 11:49 | 48.99645 | 2.56909 | 480 ft | 175 kts | 269° |
| 2026-05-06 11:49 | 48.99554 | 2.55088 | 1124 ft | 172 kts | 270° |
| 2026-05-06 11:49 | 48.99469 | 2.53235 | 1644 ft | 183 kts | 269° |
| 2026-05-06 11:50 | 48.99364 | 2.51196 | 1894 ft | 203 kts | 269° |
| 2026-05-06 11:50 | 48.99240 | 2.48921 | 2122 ft | 228 kts | 269° |
| 2026-05-06 11:50 | 48.99103 | 2.46401 | 2444 ft | 248 kts | 268° |
| 2026-05-06 11:50 | 48.98962 | 2.43745 | 3077 ft | 254 kts | 268° |
| 2026-05-06 11:51 | 48.98808 | 2.41047 | 3763 ft | 258 kts | 269° |
| 2026-05-06 11:51 | 48.98651 | 2.38306 | 4442 ft | 262 kts | 268° |
| 2026-05-06 11:51 | 48.98492 | 2.35523 | 5110 ft | 266 kts | 269° |
| 2026-05-06 11:51 | 48.98337 | 2.32711 | 5816 ft | 267 kts | 269° |
| 2026-05-06 11:52 | 48.98183 | 2.29883 | 6559 ft | 269 kts | 268° |
| 2026-05-06 11:52 | 48.98022 | 2.27043 | 7256 ft | 271 kts | 268° |
| 2026-05-06 11:52 | 48.97859 | 2.24157 | 7949 ft | 274 kts | 267° |
| 2026-05-06 11:52 | 48.97695 | 2.21296 | 8686 ft | 276 kts | 267° |
| 2026-05-06 11:53 | 48.97582 | 2.19327 | 9182 ft | 278 kts | 266° |
| 2026-05-06 11:53 | 48.97359 | 2.15404 | 10105 ft | 284 kts | 265° |
| 2026-05-06 11:53 | 48.97182 | 2.12327 | 10444 ft | 301 kts | 265° |
| 2026-05-06 11:53 | 48.96994 | 2.09054 | 10715 ft | 319 kts | 265° |
| 2026-05-06 11:54 | 48.96793 | 2.05603 | 10998 ft | 336 kts | 265° |
| 2026-05-06 11:54 | 48.96652 | 2.03171 | 11257 ft | 345 kts | 265° |
| 2026-05-06 11:54 | 48.96438 | 1.99497 | 11852 ft | 351 kts | 265° |
| 2026-05-06 11:54 | 48.96219 | 1.95785 | 12512 ft | 354 kts | 265° |
| 2026-05-06 11:55 | 48.95999 | 1.92033 | 13202 ft | 357 kts | 265° |
| 2026-05-06 11:55 | 48.95980 | 1.88235 | 13825 ft | 361 kts | 276° |
| 2026-05-06 11:55 | 48.96334 | 1.84439 | 14384 ft | 365 kts | 279° |
| 2026-05-06 11:55 | 48.96772 | 1.80609 | 14932 ft | 369 kts | 280° |
| 2026-05-06 11:56 | 48.97217 | 1.76731 | 15483 ft | 373 kts | 279° |
| 2026-05-06 11:56 | 48.97654 | 1.72870 | 16033 ft | 377 kts | 279° |
| 2026-05-06 11:56 | 48.98095 | 1.68925 | 16604 ft | 380 kts | 279° |
| 2026-05-06 11:56 | 48.98537 | 1.64933 | 17173 ft | 384 kts | 279° |
| 2026-05-06 11:57 | 48.98980 | 1.60912 | 17760 ft | 387 kts | 279° |
| 2026-05-06 11:57 | 48.99426 | 1.56851 | 18339 ft | 390 kts | 279° |
| 2026-05-06 11:57 | 48.99873 | 1.52754 | 18864 ft | 394 kts | 279° |
| 2026-05-06 11:57 | 49.00323 | 1.48617 | 19379 ft | 398 kts | 279° |
| 2026-05-06 11:58 | 49.00775 | 1.44449 | 19926 ft | 401 kts | 279° |
| 2026-05-06 11:58 | 49.01231 | 1.40228 | 20442 ft | 405 kts | 279° |
| 2026-05-06 11:58 | 49.01690 | 1.35972 | 20945 ft | 408 kts | 279° |
| 2026-05-06 11:58 | 49.02150 | 1.31684 | 21475 ft | 412 kts | 279° |
| 2026-05-06 11:59 | 49.02607 | 1.27413 | 21994 ft | 415 kts | 279° |
| 2026-05-06 11:59 | 49.03050 | 1.23048 | 22519 ft | 419 kts | 277° |
| 2026-05-06 11:59 | 49.03333 | 1.18616 | 23053 ft | 422 kts | 275° |
| 2026-05-06 11:59 | 49.03516 | 1.14137 | 23562 ft | 425 kts | 274° |
| 2026-05-06 12:00 | 49.03649 | 1.09611 | 23999 ft | 428 kts | 273° |
| 2026-05-06 12:00 | 49.03763 | 1.05059 | 24454 ft | 431 kts | 273° |
| 2026-05-06 12:00 | 49.03874 | 1.00494 | 24899 ft | 433 kts | 273° |
| 2026-05-06 12:00 | 49.03993 | 0.95889 | 25331 ft | 436 kts | 273° |
| 2026-05-06 12:01 | 49.04118 | 0.91252 | 25764 ft | 439 kts | 274° |
| 2026-05-06 12:01 | 49.04248 | 0.86586 | 26183 ft | 442 kts | 274° |
| 2026-05-06 12:01 | 49.04382 | 0.81904 | 26598 ft | 444 kts | 274° |
| 2026-05-06 12:01 | 49.04515 | 0.77186 | 27029 ft | 447 kts | 274° |
| 2026-05-06 12:02 | 49.04648 | 0.72434 | 27461 ft | 449 kts | 274° |
| 2026-05-06 12:02 | 49.04780 | 0.67663 | 27872 ft | 452 kts | 274° |
| 2026-05-06 12:02 | 49.04910 | 0.62859 | 28275 ft | 455 kts | 274° |
| 2026-05-06 12:02 | 49.05038 | 0.58030 | 28668 ft | 458 kts | 274° |
| 2026-05-06 12:03 | 49.05165 | 0.53172 | 29040 ft | 460 kts | 273° |
| 2026-05-06 12:03 | 49.05290 | 0.48269 | 29423 ft | 463 kts | 273° |
| 2026-05-06 12:03 | 49.05414 | 0.43359 | 29788 ft | 465 kts | 273° |
| 2026-05-06 12:03 | 49.05538 | 0.38415 | 30141 ft | 468 kts | 273° |
| 2026-05-06 12:04 | 49.05660 | 0.33454 | 30440 ft | 470 kts | 273° |
| 2026-05-06 12:04 | 49.05778 | 0.28524 | 30747 ft | 472 kts | 273° |
| 2026-05-06 12:04 | 49.05896 | 0.23508 | 31049 ft | 474 kts | 273° |
| 2026-05-06 12:04 | 49.06012 | 0.18479 | 31340 ft | 476 kts | 273° |
| 2026-05-06 12:05 | 49.06127 | 0.13434 | 31622 ft | 477 kts | 273° |
| 2026-05-06 12:05 | 49.06240 | 0.08359 | 31890 ft | 479 kts | 273° |
| 2026-05-06 12:05 | 49.06351 | 0.03261 | 32151 ft | 481 kts | 273° |
| 2026-05-06 12:05 | 49.06461 | -0.01854 | 32410 ft | 483 kts | 272° |
| 2026-05-06 12:06 | 49.06567 | -0.06973 | 32686 ft | 484 kts | 272° |
| 2026-05-06 12:06 | 49.06672 | -0.12091 | 33061 ft | 482 kts | 272° |
| 2026-05-06 12:06 | 49.06774 | -0.17197 | 33442 ft | 481 kts | 272° |
| 2026-05-06 12:06 | 49.06873 | -0.22296 | 33763 ft | 480 kts | 272° |
| 2026-05-06 12:07 | 49.06972 | -0.27390 | 34076 ft | 480 kts | 272° |
| 2026-05-06 12:07 | 49.07070 | -0.32471 | 34347 ft | 479 kts | 272° |
| 2026-05-06 12:07 | 49.07163 | -0.37541 | 34622 ft | 478 kts | 272° |
| 2026-05-06 12:07 | 49.07252 | -0.42595 | 34874 ft | 477 kts | 272° |
| 2026-05-06 12:08 | 49.07339 | -0.47665 | 35140 ft | 477 kts | 272° |
| 2026-05-06 12:08 | 49.07424 | -0.52659 | 35373 ft | 477 kts | 272° |
| 2026-05-06 12:08 | 49.07507 | -0.57705 | 35597 ft | 476 kts | 271° |
| 2026-05-06 12:08 | 49.07589 | -0.62749 | 35818 ft | 476 kts | 271° |
| 2026-05-06 12:09 | 49.07669 | -0.67802 | 35968 ft | 477 kts | 271° |
| 2026-05-06 12:09 | 49.07746 | -0.72879 | 35978 ft | 482 kts | 271° |
| 2026-05-06 12:09 | 49.07897 | -0.83125 | 35976 ft | 483 kts | 271° |
| 2026-05-06 12:10 | 49.08038 | -0.93345 | 35980 ft | 482 kts | 271° |
| 2026-05-06 12:10 | 49.08169 | -1.03561 | 35976 ft | 481 kts | 271° |
| 2026-05-06 12:11 | 49.08303 | -1.13767 | 35968 ft | 481 kts | 272° |
| 2026-05-06 12:11 | 49.09322 | -1.23831 | 35975 ft | 480 kts | 283° |
| 2026-05-06 12:12 | 49.10869 | -1.33757 | 35979 ft | 481 kts | 284° |
| 2026-05-06 12:12 | 49.12490 | -1.43658 | 35979 ft | 481 kts | 284° |
| 2026-05-06 12:13 | 49.14088 | -1.53507 | 35979 ft | 480 kts | 284° |
| 2026-05-06 12:13 | 49.15670 | -1.63417 | 35981 ft | 480 kts | 284° |
| 2026-05-06 12:14 | 49.17239 | -1.73351 | 35981 ft | 481 kts | 284° |
| 2026-05-06 12:14 | 49.18801 | -1.83293 | 35987 ft | 482 kts | 284° |
| 2026-05-06 12:15 | 49.20358 | -1.93261 | 35988 ft | 482 kts | 284° |
| 2026-05-06 12:15 | 49.21908 | -2.03251 | 35992 ft | 483 kts | 284° |
| 2026-05-06 12:16 | 49.23528 | -2.13211 | 35993 ft | 482 kts | 285° |
| 2026-05-06 12:16 | 49.25262 | -2.23132 | 35997 ft | 482 kts | 285° |
| 2026-05-06 12:17 | 49.26983 | -2.33036 | 35990 ft | 482 kts | 285° |
| 2026-05-06 12:17 | 49.28677 | -2.42966 | 35989 ft | 481 kts | 285° |
| 2026-05-06 12:18 | 49.30348 | -2.52886 | 35990 ft | 481 kts | 284° |
| 2026-05-06 12:18 | 49.31998 | -2.62743 | 35995 ft | 480 kts | 284° |
| 2026-05-06 12:19 | 49.33653 | -2.72683 | 35992 ft | 480 kts | 284° |
| 2026-05-06 12:19 | 49.35296 | -2.82600 | 35989 ft | 480 kts | 284° |
| 2026-05-06 12:20 | 49.36930 | -2.92524 | 35990 ft | 479 kts | 284° |
| 2026-05-06 12:20 | 49.38554 | -3.02444 | 35988 ft | 479 kts | 284° |
| 2026-05-06 12:21 | 49.39362 | -3.07399 | 35987 ft | 479 kts | 284° |